sensor_id;sensor_type;location;lat;lon;timestamp;temperature;humidity
52459;DHT22;38372;52.902;6.024;2023-01-15T00:01:23;6.50;99.90
52459;DHT22;38372;52.902;6.024;2023-01-15T00:03:50;6.60;99.90
52459;DHT22;38372;52.902;6.024;2023-01-15T00:06:17;6.50;99.90
52459;DHT22;38372;52.902;6.024;2023-01-15T00:08:43;6.60;99.90
52459;DHT22;38372;52.902;6.024;2023-01-15T00:11:09;6.60;99.90
52459;DHT22;38372;52.902;6.024;2023-01-15T00:13:35;6.60;99.90
52459;DHT22;38372;52.902;6.024;2023-01-15T00:16:04;6.70;99.90
52459;DHT22;38372;52.902;6.024;2023-01-15T00:18:31;6.70;99.90
52459;DHT22;38372;52.902;6.024;2023-01-15T00:21:05;6.70;99.90
52459;DHT22;38372;52.902;6.024;2023-01-15T00:23:31;6.60;99.90
52459;DHT22;38372;52.902;6.024;2023-01-15T00:26:17;6.70;99.90
52459;DHT22;38372;52.902;6.024;2023-01-15T00:29:02;6.70;99.90
52459;DHT22;38372;52.902;6.024;2023-01-15T00:31:28;6.70;99.90
52459;DHT22;38372;52.902;6.024;2023-01-15T00:33:55;6.70;99.90
52459;DHT22;38372;52.902;6.024;2023-01-15T00:36:20;6.70;99.90
52459;DHT22;38372;52.902;6.024;2023-01-15T00:38:46;6.70;99.90
52459;DHT22;38372;52.902;6.024;2023-01-15T00:41:12;6.70;99.90
52459;DHT22;38372;52.902;6.024;2023-01-15T00:43:38;6.70;99.90
52459;DHT22;38372;52.902;6.024;2023-01-15T00:46:04;6.70;99.90
52459;DHT22;38372;52.902;6.024;2023-01-15T00:48:30;6.70;99.90
52459;DHT22;38372;52.902;6.024;2023-01-15T00:50:56;6.70;99.90
52459;DHT22;38372;52.902;6.024;2023-01-15T00:53:22;6.70;99.90
52459;DHT22;38372;52.902;6.024;2023-01-15T00:55:48;6.70;99.90
52459;DHT22;38372;52.902;6.024;2023-01-15T00:58:14;6.60;99.90
52459;DHT22;38372;52.902;6.024;2023-01-15T01:00:39;6.70;99.90
52459;DHT22;38372;52.902;6.024;2023-01-15T01:03:05;6.60;99.90
52459;DHT22;38372;52.902;6.024;2023-01-15T01:05:31;6.70;99.90
52459;DHT22;38372;52.902;6.024;2023-01-15T01:07:57;6.70;99.90
52459;DHT22;38372;52.902;6.024;2023-01-15T01:10:24;6.60;99.90
52459;DHT22;38372;52.902;6.024;2023-01-15T01:12:50;6.60;99.90
52459;DHT22;38372;52.902;6.024;2023-01-15T01:15:20;6.60;99.90
52459;DHT22;38372;52.902;6.024;2023-01-15T01:17:46;6.60;99.90
52459;DHT22;38372;52.902;6.024;2023-01-15T01:20:13;6.50;99.90
52459;DHT22;38372;52.902;6.024;2023-01-15T01:22:40;6.50;99.90
52459;DHT22;38372;52.902;6.024;2023-01-15T01:25:06;6.50;99.90
52459;DHT22;38372;52.902;6.024;2023-01-15T01:27:32;6.50;99.90
52459;DHT22;38372;52.902;6.024;2023-01-15T01:29:58;6.50;99.90
52459;DHT22;38372;52.902;6.024;2023-01-15T01:32:24;6.60;99.90
52459;DHT22;38372;52.902;6.024;2023-01-15T01:34:49;6.60;99.90
52459;DHT22;38372;52.902;6.024;2023-01-15T01:37:15;6.60;99.90
52459;DHT22;38372;52.902;6.024;2023-01-15T01:39:41;6.50;99.90
52459;DHT22;38372;52.902;6.024;2023-01-15T01:42:15;6.50;99.90
52459;DHT22;38372;52.902;6.024;2023-01-15T01:47:14;6.50;99.90
52459;DHT22;38372;52.902;6.024;2023-01-15T01:49:42;6.50;99.90
52459;DHT22;38372;52.902;6.024;2023-01-15T01:52:12;6.50;99.90
52459;DHT22;38372;52.902;6.024;2023-01-15T01:54:38;6.50;99.90
52459;DHT22;38372;52.902;6.024;2023-01-15T01:57:06;6.60;99.90
52459;DHT22;38372;52.902;6.024;2023-01-15T01:59:33;6.60;99.90
52459;DHT22;38372;52.902;6.024;2023-01-15T02:02:00;6.60;99.90
52459;DHT22;38372;52.902;6.024;2023-01-15T02:04:26;6.70;99.90
52459;DHT22;38372;52.902;6.024;2023-01-15T02:06:53;6.60;99.90
52459;DHT22;38372;52.902;6.024;2023-01-15T02:09:19;6.60;99.90
52459;DHT22;38372;52.902;6.024;2023-01-15T02:11:46;6.60;99.90
52459;DHT22;38372;52.902;6.024;2023-01-15T02:14:21;6.60;99.90
52459;DHT22;38372;52.902;6.024;2023-01-15T02:28:31;6.50;99.90
52459;DHT22;38372;52.902;6.024;2023-01-15T02:33:37;6.50;99.90
52459;DHT22;38372;52.902;6.024;2023-01-15T02:36:08;6.50;99.90
52459;DHT22;38372;52.902;6.024;2023-01-15T02:38:40;6.60;99.90
52459;DHT22;38372;52.902;6.024;2023-01-15T02:41:08;6.60;99.90
52459;DHT22;38372;52.902;6.024;2023-01-15T02:43:47;6.60;99.90
52459;DHT22;38372;52.902;6.024;2023-01-15T02:46:16;6.60;99.90
52459;DHT22;38372;52.902;6.024;2023-01-15T02:48:46;6.60;99.90
52459;DHT22;38372;52.902;6.024;2023-01-15T02:51:16;6.70;99.90
52459;DHT22;38372;52.902;6.024;2023-01-15T02:53:45;6.70;99.90
52459;DHT22;38372;52.902;6.024;2023-01-15T02:56:15;6.70;99.90
52459;DHT22;38372;52.902;6.024;2023-01-15T02:58:43;6.70;99.90
52459;DHT22;38372;52.902;6.024;2023-01-15T03:01:40;6.70;99.90
52459;DHT22;38372;52.902;6.024;2023-01-15T03:04:18;6.70;99.90
52459;DHT22;38372;52.902;6.024;2023-01-15T03:06:50;6.60;99.90
52459;DHT22;38372;52.902;6.024;2023-01-15T03:09:18;6.60;99.90
52459;DHT22;38372;52.902;6.024;2023-01-15T03:11:51;6.60;99.90
52459;DHT22;38372;52.902;6.024;2023-01-15T03:14:43;6.50;99.90
52459;DHT22;38372;52.902;6.024;2023-01-15T03:17:19;6.40;99.90
52459;DHT22;38372;52.902;6.024;2023-01-15T03:19:57;6.40;99.90
52459;DHT22;38372;52.902;6.024;2023-01-15T03:22:26;6.40;99.90
52459;DHT22;38372;52.902;6.024;2023-01-15T03:25:03;6.50;99.90
52459;DHT22;38372;52.902;6.024;2023-01-15T03:27:29;6.40;99.90
52459;DHT22;38372;52.902;6.024;2023-01-15T03:30:16;6.40;99.90
52459;DHT22;38372;52.902;6.024;2023-01-15T03:32:42;6.40;99.90
52459;DHT22;38372;52.902;6.024;2023-01-15T03:38:13;6.40;99.90
52459;DHT22;38372;52.902;6.024;2023-01-15T03:40:49;6.40;99.90
52459;DHT22;38372;52.902;6.024;2023-01-15T03:43:20;6.40;99.90
52459;DHT22;38372;52.902;6.024;2023-01-15T03:52:00;6.50;99.90
52459;DHT22;38372;52.902;6.024;2023-01-15T03:59:53;6.50;99.90
52459;DHT22;38372;52.902;6.024;2023-01-15T04:02:21;6.40;99.90
52459;DHT22;38372;52.902;6.024;2023-01-15T04:04:49;6.40;99.90
52459;DHT22;38372;52.902;6.024;2023-01-15T04:07:16;6.40;99.90
52459;DHT22;38372;52.902;6.024;2023-01-15T04:09:42;6.30;99.90
52459;DHT22;38372;52.902;6.024;2023-01-15T04:12:09;6.40;99.90
52459;DHT22;38372;52.902;6.024;2023-01-15T04:14:34;6.40;99.90
52459;DHT22;38372;52.902;6.024;2023-01-15T04:17:00;6.40;99.90
52459;DHT22;38372;52.902;6.024;2023-01-15T04:19:26;6.40;99.90
52459;DHT22;38372;52.902;6.024;2023-01-15T04:21:52;6.40;99.90
52459;DHT22;38372;52.902;6.024;2023-01-15T04:24:17;6.50;99.90
52459;DHT22;38372;52.902;6.024;2023-01-15T04:26:43;6.50;99.90
52459;DHT22;38372;52.902;6.024;2023-01-15T04:29:09;6.40;99.90
52459;DHT22;38372;52.902;6.024;2023-01-15T04:31:35;6.40;99.90
52459;DHT22;38372;52.902;6.024;2023-01-15T04:34:02;6.40;99.90
52459;DHT22;38372;52.902;6.024;2023-01-15T04:36:27;6.50;99.90
52459;DHT22;38372;52.902;6.024;2023-01-15T04:38:53;6.40;99.90
52459;DHT22;38372;52.902;6.024;2023-01-15T04:41:21;6.40;99.90
52459;DHT22;38372;52.902;6.024;2023-01-15T04:44:06;6.40;99.90
52459;DHT22;38372;52.902;6.024;2023-01-15T04:46:34;6.40;99.90
52459;DHT22;38372;52.902;6.024;2023-01-15T04:48:59;6.30;99.90
52459;DHT22;38372;52.902;6.024;2023-01-15T04:51:25;6.30;99.90
52459;DHT22;38372;52.902;6.024;2023-01-15T04:53:51;6.30;99.90
52459;DHT22;38372;52.902;6.024;2023-01-15T04:56:18;6.30;99.90
52459;DHT22;38372;52.902;6.024;2023-01-15T04:58:44;6.30;99.90
52459;DHT22;38372;52.902;6.024;2023-01-15T05:01:15;6.20;99.90
52459;DHT22;38372;52.902;6.024;2023-01-15T05:03:42;6.20;99.90
52459;DHT22;38372;52.902;6.024;2023-01-15T05:06:09;6.20;99.90
52459;DHT22;38372;52.902;6.024;2023-01-15T05:08:35;6.20;99.90
52459;DHT22;38372;52.902;6.024;2023-01-15T05:11:05;6.20;99.90
52459;DHT22;38372;52.902;6.024;2023-01-15T05:13:31;6.20;99.90
52459;DHT22;38372;52.902;6.024;2023-01-15T05:16:24;6.20;99.90
52459;DHT22;38372;52.902;6.024;2023-01-15T05:18:52;6.20;99.90
52459;DHT22;38372;52.902;6.024;2023-01-15T05:21:21;6.20;99.90
52459;DHT22;38372;52.902;6.024;2023-01-15T05:23:48;6.10;99.90
52459;DHT22;38372;52.902;6.024;2023-01-15T05:26:14;6.20;99.90
52459;DHT22;38372;52.902;6.024;2023-01-15T05:28:40;6.10;99.90
52459;DHT22;38372;52.902;6.024;2023-01-15T05:31:14;6.10;99.90
52459;DHT22;38372;52.902;6.024;2023-01-15T05:33:42;6.10;99.90
52459;DHT22;38372;52.902;6.024;2023-01-15T05:36:10;6.10;99.90
52459;DHT22;38372;52.902;6.024;2023-01-15T05:38:37;6.10;99.90
52459;DHT22;38372;52.902;6.024;2023-01-15T05:41:04;6.10;99.90
52459;DHT22;38372;52.902;6.024;2023-01-15T05:43:50;6.10;99.90
52459;DHT22;38372;52.902;6.024;2023-01-15T05:46:16;6.10;99.90
52459;DHT22;38372;52.902;6.024;2023-01-15T05:48:42;6.00;99.90
52459;DHT22;38372;52.902;6.024;2023-01-15T05:51:08;6.10;99.90
52459;DHT22;38372;52.902;6.024;2023-01-15T05:53:34;6.10;99.90
52459;DHT22;38372;52.902;6.024;2023-01-15T05:56:00;6.10;99.90
52459;DHT22;38372;52.902;6.024;2023-01-15T05:58:26;6.10;99.90
52459;DHT22;38372;52.902;6.024;2023-01-15T06:00:52;6.10;99.90
52459;DHT22;38372;52.902;6.024;2023-01-15T06:03:21;6.00;99.90
52459;DHT22;38372;52.902;6.024;2023-01-15T06:05:54;5.90;99.90
52459;DHT22;38372;52.902;6.024;2023-01-15T06:08:21;5.90;99.90
52459;DHT22;38372;52.902;6.024;2023-01-15T06:10:48;5.90;99.90
52459;DHT22;38372;52.902;6.024;2023-01-15T06:13:16;5.80;99.90
52459;DHT22;38372;52.902;6.024;2023-01-15T06:15:42;5.80;99.90
52459;DHT22;38372;52.902;6.024;2023-01-15T06:18:09;5.80;99.90
52459;DHT22;38372;52.902;6.024;2023-01-15T06:20:39;5.80;99.90
52459;DHT22;38372;52.902;6.024;2023-01-15T06:23:05;5.80;99.90
52459;DHT22;38372;52.902;6.024;2023-01-15T06:25:32;5.80;99.90
52459;DHT22;38372;52.902;6.024;2023-01-15T06:28:04;5.80;99.90
52459;DHT22;38372;52.902;6.024;2023-01-15T06:30:31;5.80;99.90
52459;DHT22;38372;52.902;6.024;2023-01-15T06:32:56;5.80;99.90
52459;DHT22;38372;52.902;6.024;2023-01-15T06:35:22;5.80;99.90
52459;DHT22;38372;52.902;6.024;2023-01-15T06:37:49;5.80;99.90
52459;DHT22;38372;52.902;6.024;2023-01-15T06:40:15;5.80;99.90
52459;DHT22;38372;52.902;6.024;2023-01-15T06:42:41;5.80;99.90
52459;DHT22;38372;52.902;6.024;2023-01-15T06:45:25;5.70;99.90
52459;DHT22;38372;52.902;6.024;2023-01-15T06:48:10;5.70;99.90
52459;DHT22;38372;52.902;6.024;2023-01-15T06:50:35;5.70;99.90
52459;DHT22;38372;52.902;6.024;2023-01-15T06:53:01;5.60;99.90
52459;DHT22;38372;52.902;6.024;2023-01-15T06:55:27;5.60;99.90
52459;DHT22;38372;52.902;6.024;2023-01-15T06:57:53;5.60;99.90
52459;DHT22;38372;52.902;6.024;2023-01-15T07:00:18;5.70;99.90
52459;DHT22;38372;52.902;6.024;2023-01-15T07:02:44;5.60;99.90
52459;DHT22;38372;52.902;6.024;2023-01-15T07:05:10;5.60;99.90
52459;DHT22;38372;52.902;6.024;2023-01-15T07:07:36;5.60;99.90
52459;DHT22;38372;52.902;6.024;2023-01-15T07:10:02;5.50;99.90
52459;DHT22;38372;52.902;6.024;2023-01-15T07:12:28;5.50;99.90
52459;DHT22;38372;52.902;6.024;2023-01-15T07:14:54;5.50;99.90
52459;DHT22;38372;52.902;6.024;2023-01-15T07:17:20;5.60;99.90
52459;DHT22;38372;52.902;6.024;2023-01-15T07:19:46;5.60;99.90
52459;DHT22;38372;52.902;6.024;2023-01-15T07:22:12;5.70;99.90
52459;DHT22;38372;52.902;6.024;2023-01-15T07:24:38;5.70;99.90
52459;DHT22;38372;52.902;6.024;2023-01-15T07:27:04;5.70;99.90
52459;DHT22;38372;52.902;6.024;2023-01-15T07:29:30;5.80;99.90
52459;DHT22;38372;52.902;6.024;2023-01-15T07:31:55;5.80;99.90
52459;DHT22;38372;52.902;6.024;2023-01-15T07:34:21;5.70;99.90
52459;DHT22;38372;52.902;6.024;2023-01-15T07:36:47;5.70;99.90
52459;DHT22;38372;52.902;6.024;2023-01-15T07:39:13;5.70;99.90
52459;DHT22;38372;52.902;6.024;2023-01-15T07:41:39;5.60;99.90
52459;DHT22;38372;52.902;6.024;2023-01-15T07:44:23;5.60;99.90
52459;DHT22;38372;52.902;6.024;2023-01-15T07:47:22;5.60;99.90
52459;DHT22;38372;52.902;6.024;2023-01-15T07:50:12;5.50;99.90
52459;DHT22;38372;52.902;6.024;2023-01-15T07:52:39;5.60;99.90
52459;DHT22;38372;52.902;6.024;2023-01-15T07:55:05;5.60;99.90
52459;DHT22;38372;52.902;6.024;2023-01-15T07:57:33;5.70;99.90
52459;DHT22;38372;52.902;6.024;2023-01-15T07:59:59;5.70;99.90
52459;DHT22;38372;52.902;6.024;2023-01-15T08:02:25;5.70;99.90
52459;DHT22;38372;52.902;6.024;2023-01-15T08:04:51;5.80;99.90
52459;DHT22;38372;52.902;6.024;2023-01-15T08:07:17;5.80;99.90
52459;DHT22;38372;52.902;6.024;2023-01-15T08:09:43;5.90;99.90
52459;DHT22;38372;52.902;6.024;2023-01-15T08:12:10;6.10;99.90
52459;DHT22;38372;52.902;6.024;2023-01-15T08:14:54;6.20;99.90
52459;DHT22;38372;52.902;6.024;2023-01-15T08:17:44;6.30;99.90
52459;DHT22;38372;52.902;6.024;2023-01-15T08:20:16;6.30;99.90
52459;DHT22;38372;52.902;6.024;2023-01-15T08:22:42;6.30;99.90
52459;DHT22;38372;52.902;6.024;2023-01-15T08:25:11;6.30;99.90
52459;DHT22;38372;52.902;6.024;2023-01-15T08:27:38;6.20;99.90
52459;DHT22;38372;52.902;6.024;2023-01-15T08:30:06;6.20;99.90
52459;DHT22;38372;52.902;6.024;2023-01-15T08:32:32;6.20;99.90
52459;DHT22;38372;52.902;6.024;2023-01-15T08:34:58;6.10;99.90
52459;DHT22;38372;52.902;6.024;2023-01-15T08:37:24;6.00;99.90
52459;DHT22;38372;52.902;6.024;2023-01-15T08:39:50;6.00;99.90
52459;DHT22;38372;52.902;6.024;2023-01-15T08:42:18;6.00;99.90
52459;DHT22;38372;52.902;6.024;2023-01-15T08:44:44;5.90;99.90
52459;DHT22;38372;52.902;6.024;2023-01-15T08:47:10;5.90;99.90
52459;DHT22;38372;52.902;6.024;2023-01-15T08:49:36;5.90;99.90
52459;DHT22;38372;52.902;6.024;2023-01-15T08:52:03;5.90;99.90
52459;DHT22;38372;52.902;6.024;2023-01-15T08:54:29;5.90;99.90
52459;DHT22;38372;52.902;6.024;2023-01-15T08:56:54;5.90;99.90
52459;DHT22;38372;52.902;6.024;2023-01-15T08:59:20;6.00;99.90
52459;DHT22;38372;52.902;6.024;2023-01-15T09:01:46;6.00;99.90
52459;DHT22;38372;52.902;6.024;2023-01-15T09:04:16;6.00;99.90
52459;DHT22;38372;52.902;6.024;2023-01-15T09:06:43;5.90;99.90
52459;DHT22;38372;52.902;6.024;2023-01-15T09:09:10;5.80;99.90
52459;DHT22;38372;52.902;6.024;2023-01-15T09:11:36;5.80;99.90
52459;DHT22;38372;52.902;6.024;2023-01-15T09:14:08;5.70;99.90
52459;DHT22;38372;52.902;6.024;2023-01-15T09:16:35;5.70;99.90
52459;DHT22;38372;52.902;6.024;2023-01-15T09:19:02;5.70;99.90
52459;DHT22;38372;52.902;6.024;2023-01-15T09:21:28;5.70;99.90
52459;DHT22;38372;52.902;6.024;2023-01-15T09:23:54;5.80;99.90
52459;DHT22;38372;52.902;6.024;2023-01-15T09:26:37;6.00;99.90
52459;DHT22;38372;52.902;6.024;2023-01-15T09:29:04;6.40;99.90
52459;DHT22;38372;52.902;6.024;2023-01-15T09:31:31;6.90;99.90
52459;DHT22;38372;52.902;6.024;2023-01-15T09:33:57;7.50;99.90
52459;DHT22;38372;52.902;6.024;2023-01-15T09:36:29;8.00;99.90
52459;DHT22;38372;52.902;6.024;2023-01-15T09:38:56;8.60;99.90
52459;DHT22;38372;52.902;6.024;2023-01-15T09:41:24;9.00;99.90
52459;DHT22;38372;52.902;6.024;2023-01-15T09:44:31;9.00;99.90
52459;DHT22;38372;52.902;6.024;2023-01-15T09:47:17;8.50;99.90
52459;DHT22;38372;52.902;6.024;2023-01-15T09:57:27;7.00;99.90
52459;DHT22;38372;52.902;6.024;2023-01-15T09:59:54;7.20;99.90
52459;DHT22;38372;52.902;6.024;2023-01-15T10:05:43;8.90;99.90
52459;DHT22;38372;52.902;6.024;2023-01-15T10:08:15;9.60;99.90
52459;DHT22;38372;52.902;6.024;2023-01-15T10:10:49;9.50;99.90
52459;DHT22;38372;52.902;6.024;2023-01-15T10:16:05;8.30;99.90
52459;DHT22;38372;52.902;6.024;2023-01-15T10:18:31;7.80;99.90
52459;DHT22;38372;52.902;6.024;2023-01-15T10:26:04;8.40;99.90
52459;DHT22;38372;52.902;6.024;2023-01-15T10:31:49;7.40;99.90
52459;DHT22;38372;52.902;6.024;2023-01-15T10:34:46;6.90;99.90
52459;DHT22;38372;52.902;6.024;2023-01-15T10:37:24;6.70;99.90
52459;DHT22;38372;52.902;6.024;2023-01-15T10:47:34;6.20;99.90
52459;DHT22;38372;52.902;6.024;2023-01-15T10:50:24;6.30;99.90
52459;DHT22;38372;52.902;6.024;2023-01-15T10:55:28;6.50;99.90
52459;DHT22;38372;52.902;6.024;2023-01-15T11:01:03;6.90;99.90
52459;DHT22;38372;52.902;6.024;2023-01-15T11:03:38;6.90;99.90
52459;DHT22;38372;52.902;6.024;2023-01-15T11:06:06;7.10;99.90
52459;DHT22;38372;52.902;6.024;2023-01-15T11:08:36;7.20;99.90
52459;DHT22;38372;52.902;6.024;2023-01-15T11:11:21;7.50;99.90
52459;DHT22;38372;52.902;6.024;2023-01-15T11:14:07;7.50;99.90
52459;DHT22;38372;52.902;6.024;2023-01-15T11:16:51;7.60;99.90
52459;DHT22;38372;52.902;6.024;2023-01-15T11:19:36;7.70;99.90
52459;DHT22;38372;52.902;6.024;2023-01-15T11:22:15;7.70;99.90
52459;DHT22;38372;52.902;6.024;2023-01-15T11:24:59;7.60;99.90
52459;DHT22;38372;52.902;6.024;2023-01-15T11:27:27;8.00;99.90
52459;DHT22;38372;52.902;6.024;2023-01-15T11:30:00;8.20;99.90
52459;DHT22;38372;52.902;6.024;2023-01-15T11:32:33;8.30;99.90
52459;DHT22;38372;52.902;6.024;2023-01-15T11:35:02;8.30;99.90
52459;DHT22;38372;52.902;6.024;2023-01-15T11:37:29;8.40;99.90
52459;DHT22;38372;52.902;6.024;2023-01-15T11:39:59;8.60;99.90
52459;DHT22;38372;52.902;6.024;2023-01-15T11:42:30;8.80;99.90
52459;DHT22;38372;52.902;6.024;2023-01-15T11:45:20;9.00;99.90
52459;DHT22;38372;52.902;6.024;2023-01-15T11:48:21;9.00;99.90
52459;DHT22;38372;52.902;6.024;2023-01-15T11:51:09;8.80;99.90
52459;DHT22;38372;52.902;6.024;2023-01-15T11:53:47;8.60;99.90
52459;DHT22;38372;52.902;6.024;2023-01-15T11:56:23;8.50;99.90
52459;DHT22;38372;52.902;6.024;2023-01-15T11:58:55;8.50;99.90
52459;DHT22;38372;52.902;6.024;2023-01-15T12:01:36;8.40;99.90
52459;DHT22;38372;52.902;6.024;2023-01-15T12:04:22;8.50;99.90
52459;DHT22;38372;52.902;6.024;2023-01-15T12:06:49;8.50;99.90
52459;DHT22;38372;52.902;6.024;2023-01-15T12:26:30;8.10;99.90
52459;DHT22;38372;52.902;6.024;2023-01-15T12:32:02;8.70;99.90
52459;DHT22;38372;52.902;6.024;2023-01-15T12:35:02;9.20;99.90
52459;DHT22;38372;52.902;6.024;2023-01-15T12:38:02;9.20;99.90
52459;DHT22;38372;52.902;6.024;2023-01-15T12:40:55;9.20;99.90
52459;DHT22;38372;52.902;6.024;2023-01-15T12:43:27;9.10;99.90
52459;DHT22;38372;52.902;6.024;2023-01-15T12:46:16;9.00;99.90
52459;DHT22;38372;52.902;6.024;2023-01-15T12:49:03;9.00;99.90
52459;DHT22;38372;52.902;6.024;2023-01-15T12:51:52;8.90;99.90
52459;DHT22;38372;52.902;6.024;2023-01-15T12:54:23;8.80;99.90
52459;DHT22;38372;52.902;6.024;2023-01-15T12:57:02;8.80;99.90
52459;DHT22;38372;52.902;6.024;2023-01-15T12:59:57;8.60;99.90
52459;DHT22;38372;52.902;6.024;2023-01-15T13:08:02;8.00;99.90
52459;DHT22;38372;52.902;6.024;2023-01-15T13:10:30;7.90;99.90
52459;DHT22;38372;52.902;6.024;2023-01-15T13:13:21;7.70;99.90
52459;DHT22;38372;52.902;6.024;2023-01-15T13:16:17;7.40;99.90
52459;DHT22;38372;52.902;6.024;2023-01-15T13:21:35;6.60;99.90
52459;DHT22;38372;52.902;6.024;2023-01-15T13:32:14;6.00;99.90
52459;DHT22;38372;52.902;6.024;2023-01-15T13:34:48;5.90;99.90
52459;DHT22;38372;52.902;6.024;2023-01-15T13:39:42;5.90;99.90
52459;DHT22;38372;52.902;6.024;2023-01-15T13:42:19;5.80;99.90
52459;DHT22;38372;52.902;6.024;2023-01-15T13:45:22;5.50;99.90
52459;DHT22;38372;52.902;6.024;2023-01-15T13:47:57;5.30;99.90
52459;DHT22;38372;52.902;6.024;2023-01-15T13:50:35;5.30;99.90
52459;DHT22;38372;52.902;6.024;2023-01-15T13:55:39;5.50;99.90
52459;DHT22;38372;52.902;6.024;2023-01-15T13:58:30;5.60;99.90
52459;DHT22;38372;52.902;6.024;2023-01-15T14:01:02;5.70;99.90
52459;DHT22;38372;52.902;6.024;2023-01-15T14:03:30;5.80;99.90
52459;DHT22;38372;52.902;6.024;2023-01-15T14:06:02;5.80;99.90
52459;DHT22;38372;52.902;6.024;2023-01-15T14:08:40;5.90;99.90
52459;DHT22;38372;52.902;6.024;2023-01-15T14:11:36;5.90;99.90
52459;DHT22;38372;52.902;6.024;2023-01-15T14:25:51;6.10;99.90
52459;DHT22;38372;52.902;6.024;2023-01-15T14:36:17;6.10;99.90
52459;DHT22;38372;52.902;6.024;2023-01-15T14:38:50;6.20;99.90
52459;DHT22;38372;52.902;6.024;2023-01-15T14:41:33;6.20;99.90
52459;DHT22;38372;52.902;6.024;2023-01-15T14:44:29;6.30;99.90
52459;DHT22;38372;52.902;6.024;2023-01-15T14:47:02;6.30;99.90
52459;DHT22;38372;52.902;6.024;2023-01-15T14:49:30;6.30;99.90
52459;DHT22;38372;52.902;6.024;2023-01-15T14:51:57;6.40;99.90
52459;DHT22;38372;52.902;6.024;2023-01-15T14:54:24;6.40;99.90
52459;DHT22;38372;52.902;6.024;2023-01-15T14:56:54;6.40;99.90
52459;DHT22;38372;52.902;6.024;2023-01-15T14:59:51;6.40;99.90
52459;DHT22;38372;52.902;6.024;2023-01-15T15:02:24;6.40;99.90
52459;DHT22;38372;52.902;6.024;2023-01-15T15:04:57;6.40;99.90
52459;DHT22;38372;52.902;6.024;2023-01-15T15:07:26;6.40;99.90
52459;DHT22;38372;52.902;6.024;2023-01-15T15:09:58;6.40;99.90
52459;DHT22;38372;52.902;6.024;2023-01-15T15:14:59;6.30;99.90
52459;DHT22;38372;52.902;6.024;2023-01-15T15:20:18;6.40;99.90
52459;DHT22;38372;52.902;6.024;2023-01-15T15:22:50;6.40;99.90
52459;DHT22;38372;52.902;6.024;2023-01-15T15:25:21;6.40;99.90
52459;DHT22;38372;52.902;6.024;2023-01-15T15:27:48;6.40;99.90
52459;DHT22;38372;52.902;6.024;2023-01-15T15:30:14;6.40;99.90
52459;DHT22;38372;52.902;6.024;2023-01-15T15:32:43;6.40;99.90
52459;DHT22;38372;52.902;6.024;2023-01-15T15:35:24;6.40;99.90
52459;DHT22;38372;52.902;6.024;2023-01-15T15:37:51;6.40;99.90
52459;DHT22;38372;52.902;6.024;2023-01-15T15:40:20;6.40;99.90
52459;DHT22;38372;52.902;6.024;2023-01-15T15:45:56;6.40;99.90
52459;DHT22;38372;52.902;6.024;2023-01-15T15:48:41;6.40;99.90
52459;DHT22;38372;52.902;6.024;2023-01-15T15:51:33;6.40;99.90
52459;DHT22;38372;52.902;6.024;2023-01-15T15:54:14;6.40;99.90
52459;DHT22;38372;52.902;6.024;2023-01-15T15:59:31;6.40;99.90
52459;DHT22;38372;52.902;6.024;2023-01-15T16:02:06;6.30;99.90
52459;DHT22;38372;52.902;6.024;2023-01-15T16:04:52;6.30;99.90
52459;DHT22;38372;52.902;6.024;2023-01-15T16:07:27;6.30;99.90
52459;DHT22;38372;52.902;6.024;2023-01-15T16:09:59;6.30;99.90
52459;DHT22;38372;52.902;6.024;2023-01-15T16:12:28;6.30;99.90
52459;DHT22;38372;52.902;6.024;2023-01-15T16:14:55;6.30;99.90
52459;DHT22;38372;52.902;6.024;2023-01-15T16:17:23;6.20;99.90
52459;DHT22;38372;52.902;6.024;2023-01-15T16:19:53;6.20;99.90
52459;DHT22;38372;52.902;6.024;2023-01-15T16:22:20;6.10;99.90
52459;DHT22;38372;52.902;6.024;2023-01-15T16:24:56;6.10;99.90
52459;DHT22;38372;52.902;6.024;2023-01-15T16:27:26;6.10;99.90
52459;DHT22;38372;52.902;6.024;2023-01-15T16:29:53;6.00;99.90
52459;DHT22;38372;52.902;6.024;2023-01-15T16:32:23;6.00;99.90
52459;DHT22;38372;52.902;6.024;2023-01-15T16:34:59;6.00;99.90
52459;DHT22;38372;52.902;6.024;2023-01-15T16:37:29;6.00;99.90
52459;DHT22;38372;52.902;6.024;2023-01-15T16:39:56;6.10;99.90
52459;DHT22;38372;52.902;6.024;2023-01-15T16:42:30;6.00;99.90
52459;DHT22;38372;52.902;6.024;2023-01-15T16:44:59;6.00;99.90
52459;DHT22;38372;52.902;6.024;2023-01-15T16:47:32;6.00;99.90
52459;DHT22;38372;52.902;6.024;2023-01-15T16:52:58;5.90;99.90
52459;DHT22;38372;52.902;6.024;2023-01-15T16:55:45;5.90;99.90
52459;DHT22;38372;52.902;6.024;2023-01-15T17:00:42;5.80;99.90
52459;DHT22;38372;52.902;6.024;2023-01-15T17:03:21;5.70;99.90
52459;DHT22;38372;52.902;6.024;2023-01-15T17:05:51;5.60;99.90
52459;DHT22;38372;52.902;6.024;2023-01-15T17:08:26;5.70;99.90
52459;DHT22;38372;52.902;6.024;2023-01-15T17:10:59;5.70;99.90
52459;DHT22;38372;52.902;6.024;2023-01-15T17:13:36;5.70;99.90
52459;DHT22;38372;52.902;6.024;2023-01-15T17:16:22;5.70;99.90
52459;DHT22;38372;52.902;6.024;2023-01-15T17:18:49;5.70;99.90
52459;DHT22;38372;52.902;6.024;2023-01-15T17:21:20;5.60;99.90
52459;DHT22;38372;52.902;6.024;2023-01-15T17:23:51;5.60;99.90
52459;DHT22;38372;52.902;6.024;2023-01-15T17:26:20;5.50;99.90
52459;DHT22;38372;52.902;6.024;2023-01-15T17:28:47;5.50;99.90
52459;DHT22;38372;52.902;6.024;2023-01-15T17:31:26;5.50;99.90
52459;DHT22;38372;52.902;6.024;2023-01-15T17:33:55;5.50;99.90
52459;DHT22;38372;52.902;6.024;2023-01-15T17:36:21;5.40;99.90
52459;DHT22;38372;52.902;6.024;2023-01-15T17:38:47;5.40;99.90
52459;DHT22;38372;52.902;6.024;2023-01-15T17:41:14;5.30;99.90
52459;DHT22;38372;52.902;6.024;2023-01-15T17:43:40;5.30;99.90
52459;DHT22;38372;52.902;6.024;2023-01-15T17:46:07;5.30;99.90
52459;DHT22;38372;52.902;6.024;2023-01-15T17:48:34;5.30;99.90
52459;DHT22;38372;52.902;6.024;2023-01-15T17:51:04;5.20;99.90
52459;DHT22;38372;52.902;6.024;2023-01-15T17:53:31;5.20;99.90
52459;DHT22;38372;52.902;6.024;2023-01-15T17:56:03;5.20;99.90
52459;DHT22;38372;52.902;6.024;2023-01-15T17:58:48;5.20;99.90
52459;DHT22;38372;52.902;6.024;2023-01-15T18:01:36;5.20;99.90
52459;DHT22;38372;52.902;6.024;2023-01-15T18:04:56;5.20;99.90
52459;DHT22;38372;52.902;6.024;2023-01-15T18:07:42;5.20;99.90
52459;DHT22;38372;52.902;6.024;2023-01-15T18:10:10;5.20;99.90
52459;DHT22;38372;52.902;6.024;2023-01-15T18:12:42;5.30;99.90
52459;DHT22;38372;52.902;6.024;2023-01-15T18:15:08;5.40;99.90
52459;DHT22;38372;52.902;6.024;2023-01-15T18:17:34;5.40;99.90
52459;DHT22;38372;52.902;6.024;2023-01-15T18:20:00;5.50;99.90
52459;DHT22;38372;52.902;6.024;2023-01-15T18:22:26;5.50;99.90
52459;DHT22;38372;52.902;6.024;2023-01-15T18:24:51;5.60;99.90
52459;DHT22;38372;52.902;6.024;2023-01-15T18:27:17;5.60;99.90
52459;DHT22;38372;52.902;6.024;2023-01-15T18:29:43;5.70;99.90
52459;DHT22;38372;52.902;6.024;2023-01-15T18:32:09;5.70;99.90
52459;DHT22;38372;52.902;6.024;2023-01-15T18:34:35;5.80;99.90
52459;DHT22;38372;52.902;6.024;2023-01-15T18:37:01;5.80;99.90